Louisville International Standiford Field
KSDF : now visible

Airfield :











YOU CAN JOIN US ON...

 
LOGIN :

Register | Disclaimer

   EN    FR    IT 

 









Legend :    VFR   Marginal VFR   IFR   Intensive IFR   Very Intensive IFR
Visi :
Ceiling :
>= 8 km
>= 3000ft
5 to 8 km
1000 to 3000 ft
1500m to 5 km
500 to 1000 ft
800 to 1500m
200 to 500 ft
< 800m
< 200 ft
Symbols :   Thunderstorms  Fog  Heavy snow  Heavy precipitations  Wind > 20 kt







- Airport Elevation : 501 ft
- IATA code : SDF


KSDF - Louisville International Standiford Field

CURRENT METAR :
  • 261356Z 23008KT 10SM SCT065 BKN200 28/19 A3008 RMK AO2 SLP182 T02780194

EXPIRED METARs :
  • 261256Z 25009KT 10SM SCT060 BKN250 26/18 A3008 RMK AO2 SLP182 T02610183
  • 261156Z 22007KT 10SM BKN200 BKN250 25/18 A3008 RMK AO2 SLP179 T02500178 10256 20228 51006

TAF KSDF
Valid from the 26 at 12:00 until the 27 at 18:00 UTC


261120Z 2612/2718 21007KT P6SM FEW250
FM261600 24015G22KT P6SM SCT040 BKN120
PROB30 2621/2701 3SM TSRA BKN025CB
FM270200 21005KT P6SM BKN100
KZID FIR / North America



MET'MAP, your aeronautical weather chart ! - Copyright ORBIFLY December 2007 - Disclaimer

ORBIFLY MET'MAP TEAM :

Programming & Development : Alexandra Zaïnal
Concept & Development : Baudouin d'Aumeries
Co-Development & Prog : Marc-Olivier Méhu
Technical & hardware support : Manuel Goepfert

Contact : metmap@orbifly.com




SOURCES & CREDITS :

   NOAA       Earth
Advisory